aviador You're here:

LFMC Decoded Metar

LE LUC in FRANCE
Report Time2017-10-22 06:00:00
UTC Time2017-10-22 06:28:30
Flight Rules vfr VFR
Wind280° at 17 kt
W.Decomp.*RWY 27: 16.8 kt HW 2.7 kt RCW
RWY 31: 14.6 kt HW 8.8 kt LCW
W.Rank280° ranks 1
Current wind is above 280° avg. (11.0)
Visibility9999 m
Phenomena:N/A
Clouds:N/A
Expected CloudBase > 4,000 ft AGL from Temp-Dew spread
CeilingNone
Temp16°C (ISA +2)
Dew Point06°C (52% RH)
AAT9.0°C
QNH1017 hPa
Density Alt427 ft
Elevation256 ft
Report Wrong Elevation
Raw Report
METAR LFMC 220600Z AUTO 28017KT 9999 ////// 16/06 Q1017=

Extra information for LFMC:More info

Metar Taf Metar & Taf Last 4 Metars F.Rules Stats Wind Profile Meteogram Temp Stats Airport Information Weather charts Add Link Nearby VenuesMetar ALERT Operation Metar Decoded Social comments